CYPQ

Details ICAO CYPQ (YPQ)
Name PETERBOROUGH
Region Canada
Timezone America/Toronto (UTC-4.0)
Plans Departing 24
Arriving 23
Stats Elevation 628 ft / 191 m (AMSL)
Location 44.225814° -78.360029°
Runways 2
Magnetic Variation 11.283° W
Sunrise 2018-05-27 09:37:20 UTC / 2018-05-27 05:37:20 Local
Sunset 2018-05-28 00:46:47 UTC / 2018-05-27 20:46:47 Local
Advertisement - Login to hide

Runways

ID Width Length Bearing (true) Bearing (mag) Surface Threshold Offset Overrun Length
09 100 ft / 30 m 4,993 ft / 1,522 m 76.01° 87.29° Asphalt 0 ft / 0 m 0 ft / 0 m
13 100 ft / 30 m 1,968 ft / 600 m 117.62° 128.90° Grass 0 ft / 0 m 0 ft / 0 m
27 100 ft / 30 m 4,993 ft / 1,522 m 256.02° 267.30° Asphalt 0 ft / 0 m 0 ft / 0 m
31 100 ft / 30 m 1,968 ft / 600 m 297.62° 308.90° Grass 550 ft / 168 m 0 ft / 0 m

Map

Weather


0- 5 10 15 20 25 30 35+ Temperature / ° C

Clouds and Precipitation
Forecast for 2018-05-27 12:00 UTC. Updated an hour ago

Ground ~20,000 ft ~40,000 ft Winds

METAR

CYPQ 271009Z AUTO 05003KT 1 3/4SM BR FEW120 16/16 A2991 RMK SLP129 DENSITY ALT 900FT

TAF

TAF AMD TAF AMD CYPQ 271002Z 2710/2722 VRB03KT P6SM SKC TEMPO 2710/2713 1SM BR BKN007 FM271400 16008KT P6SM FEW030 BECMG 2718/2720 17015KT RMK FCST BASED ON AUTO OBS. NXT FCST BY 271400Z

Frequencies

Recorded 126.92 MHz AWOS
Unicom 123.00 MHz CTAF/UNICOM
Warning: Do not use this data for real-world aviation or navigation. No guarantee of current accuracy is given.